Time;durP1;ratioP1;P1;durP2;ratioP2;P2;SDS_P1;SDS_P2;PMS_P1;PMS_P2;Temp;Humidity;BMP_temperature;BMP_pressure;BME280_temperature;BME280_humidity;BME280_pressure;Samples;Min_cycle;Max_cycle;Signal;HPM_P1;HPM_P2
2024/01/06 00:00:22;;;;;;;;;;;2.40;99.90;;;;;;5054409;28;20360;-74
2024/01/06 00:02:48;;;;;;;;;;;2.80;99.90;;;;;;5053673;28;19920;-75
2024/01/06 00:05:14;;;;;;;;;;;2.60;99.90;;;;;;5086582;28;20596;-75
2024/01/06 00:07:40;;;;;;;;;;;2.40;99.90;;;;;;5054618;28;19920;-74
2024/01/06 00:10:06;;;;;;;;;;;2.40;99.90;;;;;;5053535;28;19924;-75
2024/01/06 00:12:31;;;;;;;;;;;2.40;99.90;;;;;;5052375;28;19950;-75
2024/01/06 00:14:57;;;;;;;;;;;2.40;99.90;;;;;;5052932;28;20387;-75
2024/01/06 00:17:22;;;;;;;;;;;2.40;99.90;;;;;;5052320;28;19927;-75
2024/01/06 00:19:51;;;;;;;;;;;2.30;99.90;;;;;;5053285;28;19956;-76
2024/01/06 00:22:17;;;;;;;;;;;2.80;99.90;;;;;;5053166;28;20287;-75
2024/01/06 00:24:43;;;;;;;;;;;2.50;99.90;;;;;;5053684;28;19996;-75
2024/01/06 00:27:08;;;;;;;;;;;3.70;99.90;;;;;;5052745;28;20018;-75
2024/01/06 00:29:34;;;;;;;;;;;2.90;99.90;;;;;;5052492;28;19927;-75
2024/01/06 00:31:59;;;;;;;;;;;2.40;99.90;;;;;;5053158;28;19927;-75
2024/01/06 00:34:25;;;;;;;;;;;2.60;99.90;;;;;;5052938;28;19935;-75
2024/01/06 00:36:50;;;;;;;;;;;2.70;99.90;;;;;;5049171;28;19920;-75
2024/01/06 00:39:16;;;;;;;;;;;2.30;99.90;;;;;;5033780;28;19927;-75
2024/01/06 00:41:41;;;;;;;;;;;2.60;99.90;;;;;;5043859;28;19935;-75
2024/01/06 00:44:07;;;;;;;;;;;2.30;99.90;;;;;;5041145;28;20007;-74
2024/01/06 00:46:32;;;;;;;;;;;2.30;99.90;;;;;;5036310;28;19920;-75
2024/01/06 00:48:59;;;;;;;;;;;2.60;99.90;;;;;;5051848;28;19968;-75
2024/01/06 00:51:24;;;;;;;;;;;2.70;99.90;;;;;;5049641;28;19921;-76
2024/01/06 00:53:50;;;;;;;;;;;2.20;99.90;;;;;;5046674;28;19940;-75
2024/01/06 00:56:15;;;;;;;;;;;2.10;99.90;;;;;;5052592;28;19921;-76
2024/01/06 00:58:41;;;;;;;;;;;2.30;99.90;;;;;;5039604;28;20359;-76
2024/01/06 01:01:06;;;;;;;;;;;2.10;99.90;;;;;;5039786;28;19925;-75
2024/01/06 01:03:32;;;;;;;;;;;2.10;99.90;;;;;;5036590;28;19928;-75
2024/01/06 01:05:57;;;;;;;;;;;3.10;99.90;;;;;;5051550;28;19965;-75
2024/01/06 01:08:23;;;;;;;;;;;2.10;99.90;;;;;;5051089;28;19920;-75
2024/01/06 01:10:48;;;;;;;;;;;2.10;99.90;;;;;;5039845;28;19928;-75
2024/01/06 01:13:14;;;;;;;;;;;2.10;99.90;;;;;;5050341;28;19930;-74
2024/01/06 01:15:39;;;;;;;;;;;3.30;99.90;;;;;;5050658;28;19920;-76
2024/01/06 01:18:05;;;;;;;;;;;2.00;99.90;;;;;;5034764;28;19924;-76
2024/01/06 01:20:31;;;;;;;;;;;2.10;99.90;;;;;;5052784;28;20363;-75
2024/01/06 01:22:56;;;;;;;;;;;2.10;99.90;;;;;;5051674;28;19928;-76
2024/01/06 01:25:22;;;;;;;;;;;2.00;99.90;;;;;;5050577;28;19969;-76
2024/01/06 01:27:47;;;;;;;;;;;2.10;99.90;;;;;;5043345;28;19924;-75
2024/01/06 01:30:14;;;;;;;;;;;2.40;99.90;;;;;;5031513;28;20061;-76
2024/01/06 01:32:39;;;;;;;;;;;2.10;99.90;;;;;;5043923;28;19920;-76
2024/01/06 01:35:05;;;;;;;;;;;2.40;99.90;;;;;;5035215;28;19927;-76
2024/01/06 01:37:31;;;;;;;;;;;2.10;99.90;;;;;;5051134;28;20062;-76
2024/01/06 01:39:57;;;;;;;;;;;2.20;99.90;;;;;;5036735;28;20015;-76
2024/01/06 01:42:22;;;;;;;;;;;2.10;99.90;;;;;;5038181;28;20058;-76
2024/01/06 01:44:48;;;;;;;;;;;2.50;99.90;;;;;;5048995;28;20265;-76
2024/01/06 01:47:18;;;;;;;;;;;2.30;99.90;;;;;;5051419;28;20427;-76
2024/01/06 01:49:45;;;;;;;;;;;2.40;99.90;;;;;;5050718;28;19921;-76
2024/01/06 01:52:11;;;;;;;;;;;2.40;99.90;;;;;;5048633;28;19924;-75
2024/01/06 01:54:36;;;;;;;;;;;2.40;99.90;;;;;;5033577;28;19922;-76
2024/01/06 01:57:02;;;;;;;;;;;2.00;99.90;;;;;;5042004;28;20043;-75
2024/01/06 01:59:28;;;;;;;;;;;1.90;99.90;;;;;;5046897;28;19920;-75
2024/01/06 02:01:53;;;;;;;;;;;2.30;99.90;;;;;;5032932;28;19971;-76
2024/01/06 02:04:19;;;;;;;;;;;1.90;99.90;;;;;;5050420;28;19920;-76
2024/01/06 02:06:44;;;;;;;;;;;2.20;99.90;;;;;;5047773;28;19920;-76
2024/01/06 02:09:11;;;;;;;;;;;3.60;99.90;;;;;;5048056;28;19927;-76
2024/01/06 02:11:36;;;;;;;;;;;1.90;99.90;;;;;;5035245;28;20413;-76
2024/01/06 02:14:02;;;;;;;;;;;1.90;99.90;;;;;;5048847;28;19928;-76
2024/01/06 02:16:27;;;;;;;;;;;1.90;99.90;;;;;;5051557;28;20392;-76
2024/01/06 02:18:53;;;;;;;;;;;2.00;99.90;;;;;;5048533;28;19920;-76
2024/01/06 02:21:21;;;;;;;;;;;1.90;99.90;;;;;;5044754;28;19921;-76
2024/01/06 02:23:47;;;;;;;;;;;2.20;99.90;;;;;;5031517;28;20332;-76
2024/01/06 02:26:14;;;;;;;;;;;2.10;99.90;;;;;;5038704;28;19939;-77
2024/01/06 02:28:40;;;;;;;;;;;2.40;99.90;;;;;;5050677;28;20015;-75
2024/01/06 02:31:06;;;;;;;;;;;1.90;99.90;;;;;;5050889;28;20014;-76
2024/01/06 02:33:31;;;;;;;;;;;1.90;99.90;;;;;;5049769;28;19925;-76
2024/01/06 02:35:57;;;;;;;;;;;1.90;99.90;;;;;;5051030;28;19917;-75
2024/01/06 02:38:22;;;;;;;;;;;1.90;99.90;;;;;;5050619;28;19924;-76
2024/01/06 02:40:48;;;;;;;;;;;1.90;99.90;;;;;;5047349;28;19920;-76
2024/01/06 02:43:13;;;;;;;;;;;1.90;99.90;;;;;;5050881;28;20324;-76
2024/01/06 02:45:39;;;;;;;;;;;2.60;99.90;;;;;;5051579;28;20284;-76
2024/01/06 02:48:05;;;;;;;;;;;1.80;99.90;;;;;;5049904;28;19931;-75
2024/01/06 02:50:30;;;;;;;;;;;1.80;99.90;;;;;;5041719;28;19924;-76
2024/01/06 02:52:56;;;;;;;;;;;2.70;99.90;;;;;;5048436;28;19928;-75
2024/01/06 02:55:21;;;;;;;;;;;1.80;99.90;;;;;;5034181;28;19921;-76
2024/01/06 02:57:47;;;;;;;;;;;1.80;99.90;;;;;;5049905;28;20033;-75
2024/01/06 03:00:12;;;;;;;;;;;1.70;99.90;;;;;;5050422;28;20295;-74
2024/01/06 03:02:41;;;;;;;;;;;1.70;99.90;;;;;;5045658;28;20273;-74
2024/01/06 03:05:07;;;;;;;;;;;2.00;99.90;;;;;;5041581;28;19947;-74
2024/01/06 03:07:33;;;;;;;;;;;1.70;99.90;;;;;;5030855;28;19928;-75
2024/01/06 03:09:58;;;;;;;;;;;1.70;99.90;;;;;;5037206;28;20421;-74
2024/01/06 03:12:24;;;;;;;;;;;1.70;99.90;;;;;;5049360;28;20022;-74
2024/01/06 03:14:51;;;;;;;;;;;2.00;99.90;;;;;;5045276;28;19963;-74
2024/01/06 03:17:16;;;;;;;;;;;1.70;99.90;;;;;;5062846;28;19921;-75
2024/01/06 03:19:42;;;;;;;;;;;1.70;99.90;;;;;;5048257;28;19924;-75
2024/01/06 03:22:07;;;;;;;;;;;2.20;99.90;;;;;;5035217;28;19979;-74
2024/01/06 03:24:33;;;;;;;;;;;1.70;99.90;;;;;;5033322;28;19921;-74
2024/01/06 03:26:58;;;;;;;;;;;1.70;99.90;;;;;;5042719;28;19964;-74
2024/01/06 03:29:24;;;;;;;;;;;2.30;99.90;;;;;;5027067;28;19928;-74
2024/01/06 03:31:49;;;;;;;;;;;1.70;99.90;;;;;;5043078;28;19920;-74
2024/01/06 03:34:15;;;;;;;;;;;1.70;99.90;;;;;;5051151;28;19920;-74
2024/01/06 03:36:41;;;;;;;;;;;1.70;99.90;;;;;;5050869;28;19921;-74
2024/01/06 03:39:07;;;;;;;;;;;1.70;99.90;;;;;;5050807;28;20022;-74
2024/01/06 03:41:32;;;;;;;;;;;1.60;99.90;;;;;;5045968;28;20400;-74
2024/01/06 03:43:58;;;;;;;;;;;1.70;99.90;;;;;;5048744;28;19924;-74
2024/01/06 03:46:24;;;;;;;;;;;1.70;99.90;;;;;;5051239;28;19920;-74
2024/01/06 03:48:49;;;;;;;;;;;1.70;99.90;;;;;;5051049;28;19921;-74
2024/01/06 03:51:15;;;;;;;;;;;1.80;99.90;;;;;;5033572;28;19920;-75
2024/01/06 03:53:40;;;;;;;;;;;1.70;99.90;;;;;;5030686;28;20403;-74
2024/01/06 03:56:06;;;;;;;;;;;2.40;99.90;;;;;;5042040;28;19925;-74
2024/01/06 03:58:32;;;;;;;;;;;1.90;99.90;;;;;;5029182;28;20415;-74
2024/01/06 04:00:57;;;;;;;;;;;1.70;99.90;;;;;;5029874;28;19921;-74
2024/01/06 04:03:23;;;;;;;;;;;1.60;99.90;;;;;;5031320;28;20380;-74
2024/01/06 04:05:48;;;;;;;;;;;1.70;99.90;;;;;;5034557;28;20309;-74
2024/01/06 04:08:14;;;;;;;;;;;1.70;99.90;;;;;;5051010;28;20364;-74
2024/01/06 04:10:41;;;;;;;;;;;1.70;99.90;;;;;;5049879;28;20261;-74
2024/01/06 04:13:15;;;;;;;;;;;1.60;99.90;;;;;;5049857;28;19921;-74
2024/01/06 04:15:41;;;;;;;;;;;1.60;99.90;;;;;;5037385;28;20025;-74
2024/01/06 04:18:06;;;;;;;;;;;1.60;99.90;;;;;;5052287;28;20010;-75
2024/01/06 04:20:32;;;;;;;;;;;1.70;99.90;;;;;;5054341;28;20735;-75
2024/01/06 04:22:58;;;;;;;;;;;1.60;99.90;;;;;;5052832;28;20011;-74
2024/01/06 04:25:24;;;;;;;;;;;1.60;99.90;;;;;;5052126;28;20015;-74
2024/01/06 04:27:49;;;;;;;;;;;1.50;99.90;;;;;;5032889;28;19925;-75
2024/01/06 04:30:15;;;;;;;;;;;3.10;99.90;;;;;;5045619;28;20344;-75
2024/01/06 04:32:41;;;;;;;;;;;1.70;99.90;;;;;;5052081;28;19920;-76
2024/01/06 04:35:07;;;;;;;;;;;1.60;99.90;;;;;;5053640;28;19927;-75
2024/01/06 04:37:33;;;;;;;;;;;1.60;99.90;;;;;;5053057;28;20401;-74
2024/01/06 04:39:58;;;;;;;;;;;1.60;99.90;;;;;;5052146;28;19924;-75
2024/01/06 04:42:24;;;;;;;;;;;1.60;99.90;;;;;;5051432;28;19920;-74
2024/01/06 04:44:50;;;;;;;;;;;1.60;99.90;;;;;;5032016;28;19934;-74
2024/01/06 04:47:15;;;;;;;;;;;1.90;99.90;;;;;;5050367;28;19920;-74
2024/01/06 04:49:41;;;;;;;;;;;2.70;99.90;;;;;;5033911;28;20988;-74
2024/01/06 04:52:07;;;;;;;;;;;1.60;99.90;;;;;;5041332;28;19943;-74
2024/01/06 04:54:32;;;;;;;;;;;1.60;99.90;;;;;;5062030;28;19986;-74
2024/01/06 04:56:58;;;;;;;;;;;1.60;99.90;;;;;;5048224;28;19928;-74
2024/01/06 04:59:23;;;;;;;;;;;1.60;99.90;;;;;;5035570;28;19921;-74
2024/01/06 05:01:51;;;;;;;;;;;1.60;99.90;;;;;;5051531;28;19971;-74
2024/01/06 05:04:16;;;;;;;;;;;1.60;99.90;;;;;;5052158;28;20364;-74
2024/01/06 05:06:42;;;;;;;;;;;1.60;99.90;;;;;;5052677;28;19925;-74
2024/01/06 05:09:07;;;;;;;;;;;1.60;99.90;;;;;;5051798;28;19920;-74
2024/01/06 05:11:33;;;;;;;;;;;1.60;99.90;;;;;;5053255;28;20054;-74
2024/01/06 05:13:58;;;;;;;;;;;1.70;99.90;;;;;;5051035;28;19982;-74
2024/01/06 05:16:25;;;;;;;;;;;1.60;99.90;;;;;;5052126;28;19920;-73
2024/01/06 05:18:50;;;;;;;;;;;1.60;99.90;;;;;;5052149;28;19924;-73
2024/01/06 05:21:16;;;;;;;;;;;1.60;99.90;;;;;;5050575;28;19921;-74
2024/01/06 05:23:42;;;;;;;;;;;1.80;99.90;;;;;;5051343;28;20010;-74
2024/01/06 05:26:07;;;;;;;;;;;1.50;99.90;;;;;;5044610;28;19925;-73
2024/01/06 05:28:33;;;;;;;;;;;1.60;99.90;;;;;;5031695;28;19920;-74
2024/01/06 05:31:01;;;;;;;;;;;1.60;99.90;;;;;;5036931;28;19924;-74
2024/01/06 05:33:27;;;;;;;;;;;1.60;99.90;;;;;;5032756;28;19928;-74
2024/01/06 05:35:52;;;;;;;;;;;1.50;99.90;;;;;;5031694;28;20015;-73
2024/01/06 05:38:18;;;;;;;;;;;3.10;99.90;;;;;;5033002;28;19921;-74
2024/01/06 05:40:43;;;;;;;;;;;1.50;99.90;;;;;;5032709;28;19920;-75
2024/01/06 05:43:09;;;;;;;;;;;1.50;99.90;;;;;;5030637;28;19955;-75
2024/01/06 05:45:34;;;;;;;;;;;1.50;99.90;;;;;;5039590;28;19920;-75
2024/01/06 05:48:00;;;;;;;;;;;1.60;99.90;;;;;;5051306;28;19920;-75
2024/01/06 05:50:25;;;;;;;;;;;1.60;99.90;;;;;;5051516;28;19926;-74
2024/01/06 05:52:51;;;;;;;;;;;1.60;99.90;;;;;;5055365;28;19988;-74
2024/01/06 05:55:19;;;;;;;;;;;1.70;99.90;;;;;;5041834;28;19920;-74
2024/01/06 05:57:44;;;;;;;;;;;1.60;99.90;;;;;;5065550;28;19931;-74
2024/01/06 06:00:11;;;;;;;;;;;1.70;99.90;;;;;;5067668;28;20351;-74
2024/01/06 06:02:36;;;;;;;;;;;1.60;99.90;;;;;;5031851;28;19925;-74
2024/01/06 06:05:02;;;;;;;;;;;1.60;99.90;;;;;;5041823;28;20344;-74
2024/01/06 06:07:27;;;;;;;;;;;1.60;99.90;;;;;;5064417;28;19951;-74
2024/01/06 06:09:53;;;;;;;;;;;1.60;99.90;;;;;;5051570;28;19966;-75
2024/01/06 06:12:19;;;;;;;;;;;1.60;99.90;;;;;;5051389;28;19921;-75
2024/01/06 06:14:45;;;;;;;;;;;1.60;99.90;;;;;;5046661;28;20327;-75
2024/01/06 06:17:10;;;;;;;;;;;1.60;99.90;;;;;;5056228;28;19967;-74
2024/01/06 06:19:36;;;;;;;;;;;1.90;99.90;;;;;;5043525;28;20379;-75
2024/01/06 06:22:01;;;;;;;;;;;1.70;99.90;;;;;;5068572;28;19925;-74
2024/01/06 06:24:27;;;;;;;;;;;2.00;99.90;;;;;;5051303;28;19921;-74
2024/01/06 06:26:52;;;;;;;;;;;1.70;99.90;;;;;;5050749;28;20363;-75
2024/01/06 06:29:18;;;;;;;;;;;1.70;99.90;;;;;;5050465;28;19928;-74
2024/01/06 06:31:44;;;;;;;;;;;1.70;99.90;;;;;;5041985;28;19924;-75
2024/01/06 06:34:10;;;;;;;;;;;1.70;99.90;;;;;;5059134;28;19946;-74
2024/01/06 06:36:36;;;;;;;;;;;1.70;99.90;;;;;;5070049;28;19924;-74
2024/01/06 06:39:01;;;;;;;;;;;1.70;99.90;;;;;;5067740;28;20391;-74
2024/01/06 06:41:27;;;;;;;;;;;1.70;99.90;;;;;;5048695;28;19934;-74
2024/01/06 06:43:52;;;;;;;;;;;1.70;99.90;;;;;;5047860;28;20291;-74
2024/01/06 06:46:18;;;;;;;;;;;1.70;99.90;;;;;;5049554;28;19970;-74
2024/01/06 06:48:43;;;;;;;;;;;1.80;99.90;;;;;;5051791;28;19985;-75
2024/01/06 06:51:10;;;;;;;;;;;1.90;99.90;;;;;;5050007;28;19983;-75
2024/01/06 06:53:36;;;;;;;;;;;2.30;99.90;;;;;;5050751;28;19926;-74
2024/01/06 06:56:02;;;;;;;;;;;1.80;99.90;;;;;;5051111;28;19925;-75
2024/01/06 06:58:27;;;;;;;;;;;1.80;99.90;;;;;;5043714;28;19970;-74
2024/01/06 07:00:54;;;;;;;;;;;1.80;99.90;;;;;;5036755;28;20414;-75
2024/01/06 07:03:19;;;;;;;;;;;1.70;99.90;;;;;;5051527;28;19939;-75
2024/01/06 07:05:45;;;;;;;;;;;1.70;99.90;;;;;;5055032;28;19920;-74
2024/01/06 07:08:10;;;;;;;;;;;3.00;99.90;;;;;;5054682;28;19974;-74
2024/01/06 07:10:39;;;;;;;;;;;1.80;99.90;;;;;;5053218;28;19920;-75
2024/01/06 07:13:05;;;;;;;;;;;1.80;99.90;;;;;;5034370;28;20296;-74
2024/01/06 07:15:30;;;;;;;;;;;1.80;99.90;;;;;;5036745;28;19999;-74
2024/01/06 07:17:56;;;;;;;;;;;1.80;99.90;;;;;;5054013;28;20020;-74
2024/01/06 07:20:22;;;;;;;;;;;1.70;99.90;;;;;;5052743;28;20370;-74
2024/01/06 07:22:47;;;;;;;;;;;1.70;99.90;;;;;;5054075;28;20291;-74
2024/01/06 07:25:13;;;;;;;;;;;1.80;99.90;;;;;;5054436;28;20376;-74
2024/01/06 07:27:38;;;;;;;;;;;1.70;99.90;;;;;;5053854;28;19924;-74
2024/01/06 07:30:04;;;;;;;;;;;2.60;99.90;;;;;;5053090;28;19920;-74
2024/01/06 07:32:30;;;;;;;;;;;1.70;99.90;;;;;;5056710;28;19974;-75
2024/01/06 07:34:56;;;;;;;;;;;1.70;99.90;;;;;;5051331;28;19921;-74
2024/01/06 07:37:21;;;;;;;;;;;1.80;99.90;;;;;;5054562;28;20268;-74
2024/01/06 07:39:47;;;;;;;;;;;1.70;99.90;;;;;;5054325;28;20392;-74
2024/01/06 07:42:12;;;;;;;;;;;1.80;99.90;;;;;;5040948;28;20250;-74
2024/01/06 07:44:38;;;;;;;;;;;1.80;99.90;;;;;;5033237;28;19977;-74
2024/01/06 07:47:05;;;;;;;;;;;2.10;99.90;;;;;;5051792;28;19928;-74
2024/01/06 07:49:30;;;;;;;;;;;3.00;99.90;;;;;;5054113;28;20385;-74
2024/01/06 07:51:56;;;;;;;;;;;1.80;99.90;;;;;;5053746;28;20008;-74
2024/01/06 07:54:21;;;;;;;;;;;1.80;99.90;;;;;;5052366;28;20015;-75
2024/01/06 07:56:47;;;;;;;;;;;1.80;99.90;;;;;;5070003;28;19989;-74
2024/01/06 07:59:12;;;;;;;;;;;1.80;99.90;;;;;;5049232;28;20265;-74
2024/01/06 08:01:38;;;;;;;;;;;1.80;99.90;;;;;;5049831;28;20334;-74
2024/01/06 08:04:04;;;;;;;;;;;1.80;99.90;;;;;;5051402;28;19931;-75
2024/01/06 08:06:29;;;;;;;;;;;2.60;99.90;;;;;;5054764;28;19920;-74
2024/01/06 08:08:55;;;;;;;;;;;1.80;99.90;;;;;;5053872;28;20011;-74
2024/01/06 08:11:20;;;;;;;;;;;1.80;99.90;;;;;;5049932;28;19927;-74
2024/01/06 08:13:46;;;;;;;;;;;1.80;99.90;;;;;;5049355;28;19966;-73
2024/01/06 08:16:12;;;;;;;;;;;1.80;99.90;;;;;;5039167;28;20057;-74
2024/01/06 08:18:39;;;;;;;;;;;1.90;99.90;;;;;;5030214;28;20373;-73
2024/01/06 08:21:04;;;;;;;;;;;1.80;99.90;;;;;;5038059;28;19978;-73
2024/01/06 08:23:30;;;;;;;;;;;1.90;99.90;;;;;;5050943;28;19987;-73
2024/01/06 08:25:56;;;;;;;;;;;1.80;99.90;;;;;;5047253;28;19921;-73
2024/01/06 08:28:23;;;;;;;;;;;1.90;99.90;;;;;;5049315;28;19921;-73
2024/01/06 08:30:48;;;;;;;;;;;1.90;99.90;;;;;;5048022;28;19921;-73
2024/01/06 08:33:14;;;;;;;;;;;1.90;99.90;;;;;;5037900;28;19928;-73
2024/01/06 08:35:40;;;;;;;;;;;2.20;99.90;;;;;;5050784;28;19916;-74
2024/01/06 08:38:09;;;;;;;;;;;1.90;99.90;;;;;;5048777;28;19927;-74
2024/01/06 08:40:35;;;;;;;;;;;1.90;99.90;;;;;;5049629;28;20004;-74
2024/01/06 08:43:00;;;;;;;;;;;2.00;99.90;;;;;;5049245;28;20027;-74
2024/01/06 08:45:26;;;;;;;;;;;3.30;99.90;;;;;;5039846;28;19936;-74
2024/01/06 08:47:51;;;;;;;;;;;2.00;99.90;;;;;;5048373;28;20292;-74
2024/01/06 08:50:17;;;;;;;;;;;2.90;99.90;;;;;;5049541;28;20383;-73
2024/01/06 08:52:42;;;;;;;;;;;2.00;99.90;;;;;;5047886;28;19924;-73
2024/01/06 08:55:08;;;;;;;;;;;2.00;99.90;;;;;;5057387;28;19924;-73
2024/01/06 08:57:33;;;;;;;;;;;2.00;99.90;;;;;;5069495;28;19927;-74
2024/01/06 08:59:59;;;;;;;;;;;2.00;99.90;;;;;;5047524;28;19928;-74
2024/01/06 09:02:24;;;;;;;;;;;2.00;99.90;;;;;;5049056;28;20401;-74
2024/01/06 09:04:50;;;;;;;;;;;2.00;99.90;;;;;;5049239;28;19927;-74
2024/01/06 09:07:17;;;;;;;;;;;2.00;99.90;;;;;;5049422;28;20283;-74
2024/01/06 09:09:42;;;;;;;;;;;3.60;99.90;;;;;;5049444;28;20393;-73
2024/01/06 09:12:08;;;;;;;;;;;2.00;99.90;;;;;;5048229;28;20030;-73
2024/01/06 09:14:33;;;;;;;;;;;2.00;99.90;;;;;;5047648;28;19948;-73
2024/01/06 09:16:59;;;;;;;;;;;2.10;99.90;;;;;;5048683;28;19929;-73
2024/01/06 09:19:28;;;;;;;;;;;2.10;99.90;;;;;;5051045;28;20340;-74
2024/01/06 09:21:54;;;;;;;;;;;2.10;99.90;;;;;;5048299;28;19920;-73
2024/01/06 09:24:20;;;;;;;;;;;2.10;99.90;;;;;;5049488;28;19921;-74
2024/01/06 09:26:46;;;;;;;;;;;2.50;99.90;;;;;;5045998;28;20372;-73
2024/01/06 09:29:11;;;;;;;;;;;2.10;99.90;;;;;;5047436;28;20292;-74
2024/01/06 09:31:37;;;;;;;;;;;2.20;99.90;;;;;;5048954;28;19927;-74
2024/01/06 09:34:02;;;;;;;;;;;2.10;99.90;;;;;;5049089;28;19992;-75
2024/01/06 09:36:29;;;;;;;;;;;2.10;99.90;;;;;;5048952;28;19927;-73
2024/01/06 09:38:55;;;;;;;;;;;2.20;99.90;;;;;;5048842;28;20011;-73
2024/01/06 09:41:21;;;;;;;;;;;2.20;99.90;;;;;;5047292;28;20457;-74
2024/01/06 09:43:47;;;;;;;;;;;2.20;99.90;;;;;;5046917;28;20055;-74
2024/01/06 09:46:21;;;;;;;;;;;2.20;99.90;;;;;;5048809;28;20368;-73
2024/01/06 09:48:49;;;;;;;;;;;2.20;99.90;;;;;;5046301;28;19933;-75
2024/01/06 09:51:15;;;;;;;;;;;3.00;99.90;;;;;;5047709;28;20352;-73
2024/01/06 09:53:45;;;;;;;;;;;2.20;99.90;;;;;;5046340;28;19921;-73
2024/01/06 09:56:11;;;;;;;;;;;2.20;99.90;;;;;;5047460;28;19924;-73
2024/01/06 09:58:38;;;;;;;;;;;2.20;99.90;;;;;;5047850;28;19920;-74
2024/01/06 10:01:04;;;;;;;;;;;2.20;99.90;;;;;;5042951;28;19932;-74
2024/01/06 10:03:30;;;;;;;;;;;2.20;99.90;;;;;;5046866;28;19920;-74
2024/01/06 10:06:00;;;;;;;;;;;2.20;99.90;;;;;;5049653;28;20283;-74
2024/01/06 10:08:26;;;;;;;;;;;2.20;99.90;;;;;;5045848;28;20007;-74
2024/01/06 10:10:52;;;;;;;;;;;2.20;99.90;;;;;;5045577;28;20333;-74
2024/01/06 10:13:18;;;;;;;;;;;2.20;99.90;;;;;;5050295;28;20015;-74
2024/01/06 10:15:43;;;;;;;;;;;2.20;99.90;;;;;;5049653;28;20007;-73
2024/01/06 10:18:09;;;;;;;;;;;2.20;99.90;;;;;;5040052;28;20032;-74
2024/01/06 10:20:34;;;;;;;;;;;2.20;99.90;;;;;;5050705;28;19928;-74
2024/01/06 10:23:04;;;;;;;;;;;2.20;99.90;;;;;;5048985;28;20287;-74
2024/01/06 10:25:29;;;;;;;;;;;2.40;99.90;;;;;;5049170;28;20003;-75
2024/01/06 10:27:55;;;;;;;;;;;2.30;99.90;;;;;;5050387;28;20054;-74
2024/01/06 10:30:20;;;;;;;;;;;2.30;99.90;;;;;;5048882;28;19928;-75
2024/01/06 10:32:46;;;;;;;;;;;2.30;99.90;;;;;;5050455;28;19931;-74
2024/01/06 10:35:12;;;;;;;;;;;3.70;99.90;;;;;;5051120;28;19921;-74
2024/01/06 10:37:37;;;;;;;;;;;2.30;99.90;;;;;;5050035;28;19928;-74
2024/01/06 10:40:06;;;;;;;;;;;2.30;99.90;;;;;;5047065;28;20405;-74
2024/01/06 10:42:32;;;;;;;;;;;2.30;99.90;;;;;;5050912;28;19924;-74
2024/01/06 10:44:58;;;;;;;;;;;2.50;99.90;;;;;;5049115;28;19921;-74
2024/01/06 10:47:26;;;;;;;;;;;2.30;99.90;;;;;;5069271;28;19931;-74
2024/01/06 10:49:54;;;;;;;;;;;2.30;99.90;;;;;;5069269;28;20314;-75
2024/01/06 10:52:20;;;;;;;;;;;2.30;99.90;;;;;;5051544;28;20342;-75
2024/01/06 10:54:50;;;;;;;;;;;2.30;99.90;;;;;;5059518;28;19943;-74
2024/01/06 10:57:15;;;;;;;;;;;2.50;99.90;;;;;;5070744;28;20291;-74
2024/01/06 10:59:41;;;;;;;;;;;2.30;99.90;;;;;;5049806;28;19925;-74
2024/01/06 11:02:07;;;;;;;;;;;3.80;99.90;;;;;;5046648;28;19920;-75
2024/01/06 11:04:33;;;;;;;;;;;2.30;99.90;;;;;;5045750;28;19927;-77
2024/01/06 11:06:59;;;;;;;;;;;2.30;99.90;;;;;;5050045;28;20077;-77
2024/01/06 11:09:26;;;;;;;;;;;3.90;99.90;;;;;;5049824;28;19998;-75
2024/01/06 11:11:53;;;;;;;;;;;2.30;99.90;;;;;;5050477;28;20028;-76
2024/01/06 11:14:21;;;;;;;;;;;2.40;99.90;;;;;;5048798;28;19928;-75
2024/01/06 11:16:47;;;;;;;;;;;2.30;99.90;;;;;;5051223;28;19967;-76
2024/01/06 11:19:31;;;;;;;;;;;2.40;99.90;;;;;;5049204;28;20372;-74
2024/01/06 11:22:16;;;;;;;;;;;2.40;99.90;;;;;;5050040;28;19954;-76
2024/01/06 11:24:43;;;;;;;;;;;2.80;99.90;;;;;;5049671;28;19921;-76
2024/01/06 11:27:09;;;;;;;;;;;2.40;99.90;;;;;;5048673;28;19924;-74
2024/01/06 11:29:35;;;;;;;;;;;2.50;99.90;;;;;;5049622;28;19927;-76
2024/01/06 11:32:20;;;;;;;;;;;2.50;99.90;;;;;;5050423;28;19975;-76
2024/01/06 11:34:49;;;;;;;;;;;2.50;99.90;;;;;;5047916;28;19924;-76
2024/01/06 11:37:17;;;;;;;;;;;2.50;99.90;;;;;;5051242;28;19920;-79
2024/01/06 11:39:44;;;;;;;;;;;3.60;99.90;;;;;;5050226;28;20007;-77
2024/01/06 11:42:11;;;;;;;;;;;3.00;99.90;;;;;;5050247;28;19932;-75
2024/01/06 11:44:37;;;;;;;;;;;2.60;99.90;;;;;;5049637;28;19920;-74
2024/01/06 11:47:03;;;;;;;;;;;2.80;99.90;;;;;;5050272;28;20009;-75
2024/01/06 11:49:29;;;;;;;;;;;2.70;99.90;;;;;;5047927;28;19920;-76
2024/01/06 11:51:56;;;;;;;;;;;2.80;99.90;;;;;;5052377;28;20299;-76
2024/01/06 11:54:21;;;;;;;;;;;2.70;99.90;;;;;;5054572;28;20387;-77
2024/01/06 11:56:47;;;;;;;;;;;3.00;99.90;;;;;;5053765;28;19926;-78
2024/01/06 11:59:13;;;;;;;;;;;2.80;99.90;;;;;;5062644;28;19990;-78
2024/01/06 12:01:39;;;;;;;;;;;3.00;99.90;;;;;;5040304;28;20302;-77
2024/01/06 12:04:05;;;;;;;;;;;2.70;99.90;;;;;;5052419;28;19978;-77
2024/01/06 12:06:31;;;;;;;;;;;2.70;99.90;;;;;;5054852;28;19920;-78
2024/01/06 12:09:16;;;;;;;;;;;2.70;99.90;;;;;;5053557;28;19927;-77
2024/01/06 12:11:44;;;;;;;;;;;2.70;99.90;;;;;;5034371;28;19924;-76
2024/01/06 12:14:10;;;;;;;;;;;2.90;99.90;;;;;;5029581;28;20007;-77
2024/01/06 12:16:36;;;;;;;;;;;2.80;99.90;;;;;;5029856;28;20004;-76
2024/01/06 12:19:03;;;;;;;;;;;2.70;99.90;;;;;;5046111;28;19995;-77
2024/01/06 12:21:30;;;;;;;;;;;2.70;99.90;;;;;;5050885;28;20340;-77
2024/01/06 12:24:12;;;;;;;;;;;3.10;99.90;;;;;;5049496;28;19947;-77
2024/01/06 12:26:40;;;;;;;;;;;2.60;99.90;;;;;;5038554;28;19968;-76
2024/01/06 12:29:06;;;;;;;;;;;3.40;99.90;;;;;;5029234;28;19952;-76
2024/01/06 12:31:31;;;;;;;;;;;2.60;99.90;;;;;;5029639;28;19925;-76
2024/01/06 12:33:58;;;;;;;;;;;2.80;99.90;;;;;;5046829;28;19983;-74
2024/01/06 12:36:23;;;;;;;;;;;2.50;99.90;;;;;;5050745;28;19963;-74
2024/01/06 12:38:50;;;;;;;;;;;2.50;99.90;;;;;;5049164;28;19921;-74
2024/01/06 12:41:16;;;;;;;;;;;3.60;99.90;;;;;;5050656;28;19927;-74
2024/01/06 12:43:41;;;;;;;;;;;2.30;99.90;;;;;;5047997;28;20358;-74
2024/01/06 12:46:07;;;;;;;;;;;3.30;99.90;;;;;;5048729;28;19921;-74
2024/01/06 12:48:32;;;;;;;;;;;2.60;99.90;;;;;;5050441;28;19920;-74
2024/01/06 12:50:58;;;;;;;;;;;2.80;99.90;;;;;;5049584;28;19916;-74
2024/01/06 12:53:23;;;;;;;;;;;4.30;99.90;;;;;;5050031;28;19971;-74
2024/01/06 12:55:49;;;;;;;;;;;2.50;99.90;;;;;;5049897;28;19921;-74
2024/01/06 12:58:14;;;;;;;;;;;2.40;99.90;;;;;;5048728;28;19924;-74
2024/01/06 13:00:40;;;;;;;;;;;2.40;99.90;;;;;;5049019;28;20423;-72
2024/01/06 13:03:06;;;;;;;;;;;2.30;99.90;;;;;;5041801;28;19917;-73
2024/01/06 13:05:31;;;;;;;;;;;2.30;99.90;;;;;;5043360;28;19927;-73
2024/01/06 13:07:57;;;;;;;;;;;2.30;99.90;;;;;;5047579;28;19920;-72
2024/01/06 13:10:23;;;;;;;;;;;2.30;99.90;;;;;;5049574;28;19927;-73
2024/01/06 13:12:48;;;;;;;;;;;2.30;99.90;;;;;;5046736;28;20394;-72
2024/01/06 13:15:14;;;;;;;;;;;2.30;99.90;;;;;;5052299;28;19986;-72
2024/01/06 13:17:40;;;;;;;;;;;2.20;99.90;;;;;;5070285;28;19921;-72
2024/01/06 13:20:06;;;;;;;;;;;2.20;99.90;;;;;;5051702;28;20025;-72
2024/01/06 13:22:31;;;;;;;;;;;2.30;99.90;;;;;;5077207;28;19924;-73
2024/01/06 13:24:58;;;;;;;;;;;2.40;99.90;;;;;;5052397;28;19943;-72
2024/01/06 13:27:24;;;;;;;;;;;2.30;99.90;;;;;;5034713;28;20276;-72
2024/01/06 13:29:51;;;;;;;;;;;2.20;99.90;;;;;;5051429;28;19916;-72
2024/01/06 13:32:19;;;;;;;;;;;2.20;99.90;;;;;;5052459;28;20277;-72
2024/01/06 13:34:44;;;;;;;;;;;2.20;99.90;;;;;;5050099;28;19931;-73
2024/01/06 13:37:10;;;;;;;;;;;2.50;99.90;;;;;;5051900;28;19920;-73
2024/01/06 13:39:36;;;;;;;;;;;2.20;99.90;;;;;;5042014;28;19999;-73
2024/01/06 13:42:03;;;;;;;;;;;2.20;99.90;;;;;;5050160;28;20390;-73
2024/01/06 13:44:29;;;;;;;;;;;2.10;99.90;;;;;;5051143;28;19920;-73
2024/01/06 13:46:54;;;;;;;;;;;2.20;99.90;;;;;;5050066;28;20276;-71
2024/01/06 13:49:21;;;;;;;;;;;2.20;99.90;;;;;;5051312;28;19990;-73
2024/01/06 13:51:46;;;;;;;;;;;2.30;99.90;;;;;;5051646;28;19926;-72
2024/01/06 13:54:12;;;;;;;;;;;2.20;99.90;;;;;;5052113;28;19921;-72
2024/01/06 13:56:37;;;;;;;;;;;2.10;99.90;;;;;;5050557;28;19920;-73
2024/01/06 13:59:03;;;;;;;;;;;2.10;99.90;;;;;;5046748;28;19924;-74
2024/01/06 14:01:29;;;;;;;;;;;2.10;99.90;;;;;;5051214;28;19943;-74
2024/01/06 14:03:57;;;;;;;;;;;2.10;99.90;;;;;;5046513;28;19924;-73
2024/01/06 14:06:24;;;;;;;;;;;2.20;99.90;;;;;;5050730;28;19965;-74
2024/01/06 14:08:50;;;;;;;;;;;2.60;99.90;;;;;;5050612;28;19968;-73
2024/01/06 14:11:18;;;;;;;;;;;2.20;99.90;;;;;;5048529;28;19932;-75
2024/01/06 14:13:48;;;;;;;;;;;2.20;99.90;;;;;;5049782;28;20433;-75
2024/01/06 14:16:14;;;;;;;;;;;2.10;99.90;;;;;;5050780;28;19924;-73
2024/01/06 14:18:39;;;;;;;;;;;2.10;99.90;;;;;;5052059;28;19923;-72
2024/01/06 14:21:05;;;;;;;;;;;3.60;99.90;;;;;;5051445;28;19920;-74
2024/01/06 14:23:32;;;;;;;;;;;2.10;99.90;;;;;;5069409;28;20070;-73